Flight Track Log - Related Links

Times and Time Zones

All times are in EDT time to prevent confusion due to time zone crossing. See the JEX1486 flight status page for this flight to view local times or setup timezone preferences in your user account.

Time Position Orientation Groundspeed Altitude Reporting Facility
EDT Latitude Longitude Course Direction KTS MPH feet Rate Location/Type
Tue 11:32:00 PM 33.6804 134.0430 67° East  Level Estimated
Tue 11:33:00 PM 33.7249 134.1678 67° East  Level Estimated
Tue 11:34:00 PM 33.7693 134.2927 67° East  Level Estimated
Tue 11:35:00 PM 33.8135 134.4178 67° East  Level Estimated
Tue 11:36:00 PM 33.8577 134.5429 67° East  Level Estimated
Tue 11:37:00 PM 33.9017 134.6682 67° East  Level Estimated
Tue 11:38:00 PM 33.9455 134.7937 67° East  Level Estimated
Tue 11:39:00 PM 33.9893 134.9192 67° East  Level Estimated
Tue 11:40:00 PM 34.0329 135.0449 67° East  Level Estimated
Tue 11:41:00 PM 34.0747 135.1657 67° East  Level Estimated
Tue 11:42:00 PM 34.1163 135.2866 67° East  Level Estimated
Tue 11:43:00 PM 34.1578 135.4076 67° East  Level Estimated
Tue 11:44:00 PM 34.1992 135.5287 68° East  Level Estimated
Tue 11:45:00 PM 34.2405 135.6500 68° East  Level Estimated
Tue 11:46:00 PM 34.2817 135.7714 68° East  Level Estimated
Tue 11:47:00 PM 34.3227 135.8929 68° East  Level Estimated
Tue 11:48:00 PM 34.3636 136.0145 68° East  Level Estimated
Tue 11:49:00 PM 34.4044 136.1362 68° East  Level Estimated
Tue 11:50:00 PM 34.4451 136.2581 68° East  Level Estimated
Tue 11:51:00 PM 34.4857 136.3801 68° East  Level Estimated
Tue 11:52:00 PM 34.5261 136.5021 68° East  Level Estimated
Tue 11:53:00 PM 34.5681 136.6294 68° East  Level Estimated
Tue 11:54:00 PM 34.6100 136.7569 68° East  Level Estimated
Tue 11:55:00 PM 34.6517 136.8844 68° East  Level Estimated
Tue 11:56:00 PM 34.6924 137.0095 68° East  Level Estimated
Tue 11:57:00 PM 34.7331 137.1347 68° East  Level Estimated
Tue 11:58:00 PM 34.7735 137.2600 68° East  Level Estimated
Tue 11:59:00 PM 34.8139 137.3855 69° East  Level Estimated
Wed 12:00:00 AM 34.8541 137.5111 69° East  Level Estimated
Wed 12:01:00 AM 34.8942 137.6367 69° East  Level Estimated
Wed 12:02:00 AM 34.9342 137.7626 69° East  Level Estimated
Wed 12:03:00 AM 34.9685 137.8708 69° East  Level Estimated
Wed 12:04:00 AM 35.0027 137.9792 69° East  Level Estimated
Wed 12:05:00 AM 35.0367 138.0876 69° East  Level Estimated
Wed 12:06:00 AM 35.0707 138.1962 69° East  Level Estimated
Wed 12:07:00 AM 35.1046 138.3048 69° East  Level Estimated
Wed 12:08:00 AM 35.1384 138.4135 69° East  Level Estimated
Wed 12:09:00 AM 35.1720 138.5223 69° East  Level Estimated
Wed 12:10:00 AM 35.2056 138.6312 69° East  Level Estimated
Wed 12:11:00 AM 35.2391 138.7401 69° East  Level Estimated
Wed 12:12:00 AM 35.2725 138.8492 69° East  Level Estimated
Wed 12:13:00 AM 35.3058 138.9584 69° East  Level Estimated
Wed 12:14:00 AM 35.3390 139.0676 70° East  Level Estimated
Wed 12:15:00 AM 35.3721 139.1770 70° East  Level Estimated
Wed 12:16:00 AM 35.4051 139.2864 70° East  Level Estimated
Wed 12:17:00 AM 35.4380 139.3959 70° East  Level Estimated
Wed 12:18:00 AM 35.4708 139.5055 70° East  Level Estimated
Wed 12:19:00 AM 35.5035 139.6152 70° East  Level Estimated
Wed 12:20:00 AM 35.5361 139.7250 70° East  Level Estimated
Wed 12:21:00 AM 35.5523 139.7797 70° East  Level Estimated
Wed 12:22:00 AM 35.5523 139.7797 122° Southeast  Level Estimated
Wed 12:23:00 AM 35.5523 139.7797 122° Southeast  Level Estimated
Wed 12:24:00 AM 35.5523 139.7797 122° Southeast  Level Estimated
Wed 12:25:00 AM 35.5523 139.7797 122° Southeast  Level Estimated
Wed 12:26:00 AM 35.5523 139.7797 122° Southeast  Level Estimated
Wed 12:27:00 AM 35.5523 139.7797 122° Southeast  Level Estimated
Wed 12:28:00 AM 35.5523 139.7797 122° Southeast  Level Estimated
Wed 12:29:00 AM 35.5523 139.7797 122° Southeast  Level Estimated
Wed 12:30:00 AM 35.5523 139.7797 122° Southeast  Level Estimated
Wed 12:31:00 AM 35.5523 139.7797 122° Southeast  Level Estimated
Wed 12:32:00 AM 35.5523 139.7797 122° Southeast  Level Estimated
Wed 12:33:00 AM 35.5523 139.7797 122° Southeast  Level Estimated
Wed 12:34:00 AM 35.5523 139.7797 122° Southeast  Level Estimated
Wed 12:35:00 AM 35.5523 139.7797 122° Southeast  Level Estimated
Wed 12:36:00 AM 35.5523 139.7797 122° Southeast  Level Estimated
Wed 12:37:00 AM 35.5523 139.7797 122° Southeast  Level Estimated
Wed 12:38:00 AM 35.5523 139.7797 122° Southeast  Level Estimated
Wed 12:39:00 AM 35.5523 139.7797 122° Southeast  Level Estimated
Wed 12:40:00 AM 35.5523 139.7797 122° Southeast  Level Estimated
Wed 12:41:00 AM 35.5523 139.7797 122° Southeast  Level Estimated

Login

Don't have an account? Register now (free) for customized features, flight alerts, and more!